Terminal Aerodrome Forecast
Issued by NWS Burlington, VT

Home | Current Version | Previous Version | Text Only | Print | Product List | Glossary On
Versions: 1 2 3 4 5 6 7 8 9 10 11 12 13 14
000
FTUS41 KBTV 051720
TAFBTV
TAF
KBTV 051720Z 0518/0618 33010KT P6SM BKN250
     FM060000 VRB03KT P6SM BKN250
     FM061400 24007KT P6SM SKC=

USA.gov is the U.S. government's official web portal to all federal, state and local government web resources and services.